Time,TemperatureF,DewpointF,PressureIn,WindDirection,WindDirectionDegrees,WindSpeedMPH,WindSpeedGustMPH,Humidity,HourlyPrecipIn,Conditions,Clouds,dailyrainin,SoftwareType,DateUTC
2017-11-22 00:06:00,52.5,52.5,29.91,West,277,0.0,0.0,100,0.00,,,0.00,Wunderground v.1.15,2017-11-22 08:06:00,
2017-11-22 00:16:00,52.3,52.3,29.90,West,277,0.0,0.0,100,0.00,,,0.00,Wunderground v.1.15,2017-11-22 08:16:00,
2017-11-22 00:21:00,52.2,52.2,29.90,West,277,0.0,0.0,100,0.00,,,0.00,Wunderground v.1.15,2017-11-22 08:21:00,
2017-11-22 00:26:00,52.2,52.2,29.90,West,277,0.0,0.0,100,0.00,,,0.00,Wunderground v.1.15,2017-11-22 08:26:00,
2017-11-22 00:31:00,52.0,52.0,29.90,West,277,0.0,0.0,100,0.00,,,0.00,Wunderground v.1.15,2017-11-22 08:31:00,
2017-11-22 00:41:00,52.3,52.3,29.80,West,277,0.0,0.0,100,0.00,,,0.00,Wunderground v.1.15,2017-11-22 08:41:00,
2017-11-22 00:46:00,52.5,52.5,29.90,West,277,0.0,0.0,100,0.00,,,0.00,Wunderground v.1.15,2017-11-22 08:46:00,
2017-11-22 01:01:00,52.3,52.3,29.90,West,277,0.0,0.0,100,0.00,,,0.01,Wunderground v.1.15,2017-11-22 09:01:00,
2017-11-22 01:06:00,52.6,52.6,29.90,West,277,0.0,0.0,100,0.00,,,0.01,Wunderground v.1.15,2017-11-22 09:06:00,
2017-11-22 01:11:00,52.3,52.3,29.90,West,277,0.0,0.0,100,0.00,,,0.01,Wunderground v.1.15,2017-11-22 09:11:00,
2017-11-22 01:16:00,52.6,52.6,29.89,West,277,0.0,0.0,100,0.00,,,0.01,Wunderground v.1.15,2017-11-22 09:16:00,
2017-11-22 01:21:00,52.3,52.3,29.89,West,277,0.0,0.0,100,0.00,,,0.01,Wunderground v.1.15,2017-11-22 09:21:00,
2017-11-22 01:26:00,52.0,52.0,29.89,West,277,0.0,2.0,100,0.00,,,0.01,Wunderground v.1.15,2017-11-22 09:26:00,
2017-11-22 01:31:00,52.2,52.2,29.89,West,277,2.0,3.0,100,0.00,,,0.01,Wunderground v.1.15,2017-11-22 09:31:00,
2017-11-22 01:36:00,52.2,52.2,29.89,West,277,0.0,3.0,100,0.00,,,0.01,Wunderground v.1.15,2017-11-22 09:36:00,
2017-11-22 01:41:00,52.0,52.0,29.89,West,277,0.0,1.0,100,0.00,,,0.01,Wunderground v.1.15,2017-11-22 09:41:00,
2017-11-22 01:46:00,52.6,52.6,29.90,West,277,0.0,1.0,100,0.00,,,0.01,Wunderground v.1.15,2017-11-22 09:46:00,
2017-11-22 01:51:00,52.3,52.3,29.90,West,277,0.0,0.0,100,0.00,,,0.01,Wunderground v.1.15,2017-11-22 09:51:00,
2017-11-22 01:56:00,52.5,52.5,29.90,West,277,0.0,0.0,100,0.00,,,0.01,Wunderground v.1.15,2017-11-22 09:56:00,
2017-11-22 02:01:00,52.2,52.2,29.90,West,277,2.0,2.0,100,0.00,,,0.02,Wunderground v.1.15,2017-11-22 10:01:00,
2017-11-22 02:06:00,52.3,52.3,29.90,West,277,0.0,2.0,100,0.00,,,0.02,Wunderground v.1.15,2017-11-22 10:06:00,
2017-11-22 02:11:00,52.5,52.5,29.80,West,277,0.0,0.0,100,0.00,,,0.02,Wunderground v.1.15,2017-11-22 10:11:00,
2017-11-22 02:16:00,52.6,52.6,29.90,West,277,0.0,0.0,100,0.00,,,0.02,Wunderground v.1.15,2017-11-22 10:16:00,
2017-11-22 02:21:00,52.3,52.3,29.90,West,277,0.0,0.0,100,0.00,,,0.02,Wunderground v.1.15,2017-11-22 10:21:00,
2017-11-22 02:26:00,52.0,52.0,29.90,West,277,0.0,2.0,100,0.00,,,0.02,Wunderground v.1.15,2017-11-22 10:26:00,
2017-11-22 02:31:00,52.3,52.3,29.80,West,277,0.0,0.0,100,0.00,,,0.03,Wunderground v.1.15,2017-11-22 10:31:00,
2017-11-22 02:36:00,52.2,52.2,29.90,West,277,0.0,0.0,100,0.00,,,0.03,Wunderground v.1.15,2017-11-22 10:36:00,
2017-11-22 02:41:00,52.2,52.2,29.90,West,277,0.0,0.0,100,0.00,,,0.03,Wunderground v.1.15,2017-11-22 10:41:00,
2017-11-22 02:46:00,52.3,52.3,29.90,West,277,2.0,3.0,100,0.04,,,0.04,Wunderground v.1.15,2017-11-22 10:46:00,
2017-11-22 02:51:00,52.3,52.3,29.90,West,277,0.0,1.0,100,0.04,,,0.04,Wunderground v.1.15,2017-11-22 10:51:00,
2017-11-22 02:56:00,52.3,52.3,29.90,West,277,0.0,1.0,100,0.04,,,0.04,Wunderground v.1.15,2017-11-22 10:56:00,
2017-11-22 03:01:00,52.0,52.0,29.90,West,277,0.0,2.0,100,0.00,,,0.04,Wunderground v.1.15,2017-11-22 11:01:00,
2017-11-22 03:06:00,52.0,52.0,29.90,West,277,0.0,2.0,100,0.00,,,0.04,Wunderground v.1.15,2017-11-22 11:06:00,
2017-11-22 03:11:00,51.9,51.9,29.90,West,277,0.0,0.0,100,0.00,,,0.04,Wunderground v.1.15,2017-11-22 11:11:00,
2017-11-22 03:16:00,52.0,52.0,29.90,West,277,0.0,0.0,100,0.00,,,0.04,Wunderground v.1.15,2017-11-22 11:16:00,
2017-11-22 03:21:00,52.3,52.3,29.90,West,277,0.0,0.0,100,0.00,,,0.04,Wunderground v.1.15,2017-11-22 11:21:00,
2017-11-22 03:26:00,52.5,52.5,29.90,West,277,0.0,0.0,100,0.00,,,0.04,Wunderground v.1.15,2017-11-22 11:26:00,
2017-11-22 03:51:00,52.0,52.0,29.90,West,277,0.0,0.0,100,0.00,,,0.04,Wunderground v.1.15,2017-11-22 11:51:00,
2017-11-22 03:56:00,51.9,51.9,29.90,West,277,0.0,0.0,100,0.00,,,0.04,Wunderground v.1.15,2017-11-22 11:56:00,
2017-11-22 04:06:00,51.7,51.7,29.90,West,277,0.0,0.0,100,0.00,,,0.04,Wunderground v.1.15,2017-11-22 12:06:00,
2017-11-22 04:16:00,51.7,51.7,29.90,West,277,0.0,3.0,100,0.00,,,0.04,Wunderground v.1.15,2017-11-22 12:16:00,
2017-11-22 04:21:00,51.6,51.6,29.90,West,277,0.0,2.0,100,0.00,,,0.04,Wunderground v.1.15,2017-11-22 12:21:00,
2017-11-22 04:31:00,51.7,51.7,29.90,West,277,0.0,0.0,100,0.00,,,0.04,Wunderground v.1.15,2017-11-22 12:31:00,
2017-11-22 04:41:00,52.3,52.3,29.90,West,277,0.0,0.0,100,0.00,,,0.04,Wunderground v.1.15,2017-11-22 12:41:00,
2017-11-22 04:56:00,52.2,52.2,29.91,West,277,0.0,0.0,100,0.00,,,0.04,Wunderground v.1.15,2017-11-22 12:56:00,
2017-11-22 05:01:00,52.3,52.3,29.91,West,277,0.0,0.0,100,0.00,,,0.04,Wunderground v.1.15,2017-11-22 13:01:00,
2017-11-22 05:06:00,52.3,52.3,29.81,West,277,0.0,0.0,100,0.00,,,0.04,Wunderground v.1.15,2017-11-22 13:06:00,
2017-11-22 05:11:00,52.2,52.2,29.91,West,277,0.0,0.0,100,0.00,,,0.04,Wunderground v.1.15,2017-11-22 13:11:00,
2017-11-22 05:16:00,52.0,52.0,29.81,West,277,0.0,0.0,100,0.00,,,0.04,Wunderground v.1.15,2017-11-22 13:16:00,
2017-11-22 05:21:00,51.7,51.7,29.91,West,277,0.0,0.0,100,0.00,,,0.04,Wunderground v.1.15,2017-11-22 13:21:00,
2017-11-22 05:26:00,51.7,51.7,29.91,West,277,0.0,0.0,100,0.00,,,0.04,Wunderground v.1.15,2017-11-22 13:26:00,
2017-11-22 05:31:00,51.3,51.3,29.91,West,277,0.0,0.0,100,0.00,,,0.04,Wunderground v.1.15,2017-11-22 13:31:00,
2017-11-22 05:36:00,51.3,51.3,29.91,West,277,0.0,1.0,100,0.00,,,0.04,Wunderground v.1.15,2017-11-22 13:36:00,
2017-11-22 05:41:00,51.4,51.4,29.91,West,277,0.0,0.0,100,0.00,,,0.04,Wunderground v.1.15,2017-11-22 13:41:00,
2017-11-22 05:46:00,51.7,51.7,29.90,West,277,0.0,0.0,100,0.00,,,0.04,Wunderground v.1.15,2017-11-22 13:46:00,
2017-11-22 05:51:00,51.9,51.9,29.90,West,277,0.0,0.0,100,0.00,,,0.04,Wunderground v.1.15,2017-11-22 13:51:00,
2017-11-22 05:56:00,51.6,51.6,29.90,West,277,0.0,0.0,100,0.00,,,0.04,Wunderground v.1.15,2017-11-22 13:56:00,
2017-11-22 06:01:00,51.6,51.6,29.90,West,277,0.0,0.0,100,0.00,,,0.04,Wunderground v.1.15,2017-11-22 14:01:00,
2017-11-22 06:06:00,51.6,51.6,29.90,West,277,0.0,0.0,100,0.00,,,0.04,Wunderground v.1.15,2017-11-22 14:06:00,
2017-11-22 06:11:00,51.7,51.7,29.80,West,277,0.0,0.0,100,0.00,,,0.04,Wunderground v.1.15,2017-11-22 14:11:00,
2017-11-22 06:16:00,51.6,51.6,29.90,West,277,0.0,0.0,100,0.00,,,0.04,Wunderground v.1.15,2017-11-22 14:16:00,
2017-11-22 06:31:00,51.7,51.7,29.90,West,277,0.0,0.0,100,0.00,,,0.04,Wunderground v.1.15,2017-11-22 14:31:00,
2017-11-22 06:46:00,52.0,52.0,29.90,West,277,0.0,0.0,100,0.00,,,0.04,Wunderground v.1.15,2017-11-22 14:46:00,
2017-11-22 06:51:00,52.2,52.2,29.80,West,277,0.0,0.0,100,0.00,,,0.04,Wunderground v.1.15,2017-11-22 14:51:00,
2017-11-22 07:01:00,51.9,51.9,29.89,West,277,0.0,0.0,100,0.00,,,0.04,Wunderground v.1.15,2017-11-22 15:01:00,
2017-11-22 07:06:00,52.2,52.2,29.89,West,277,0.0,0.0,100,0.00,,,0.04,Wunderground v.1.15,2017-11-22 15:06:00,
2017-11-22 07:11:00,52.2,52.2,29.89,West,277,0.0,0.0,100,0.00,,,0.04,Wunderground v.1.15,2017-11-22 15:11:00,
2017-11-22 07:26:00,52.3,52.3,29.89,West,277,0.0,0.0,100,0.00,,,0.04,Wunderground v.1.15,2017-11-22 15:26:00,
2017-11-22 07:31:00,52.3,52.3,29.89,West,277,0.0,0.0,100,0.00,,,0.04,Wunderground v.1.15,2017-11-22 15:31:00,
2017-11-22 07:36:00,52.2,52.2,29.89,West,277,0.0,0.0,100,0.00,,,0.04,Wunderground v.1.15,2017-11-22 15:36:00,
2017-11-22 07:41:00,52.3,52.3,29.89,West,277,0.0,0.0,100,0.00,,,0.04,Wunderground v.1.15,2017-11-22 15:41:00,
2017-11-22 08:01:00,52.2,52.2,29.79,West,277,0.0,0.0,100,0.00,,,0.04,Wunderground v.1.15,2017-11-22 16:01:00,
2017-11-22 08:06:00,52.5,52.5,29.89,West,277,0.0,0.0,100,0.00,,,0.04,Wunderground v.1.15,2017-11-22 16:06:00,
2017-11-22 08:11:00,52.6,52.6,29.89,West,277,0.0,0.0,100,0.00,,,0.04,Wunderground v.1.15,2017-11-22 16:11:00,
2017-11-22 08:16:00,52.6,52.6,29.90,West,277,0.0,0.0,100,0.00,,,0.04,Wunderground v.1.15,2017-11-22 16:16:00,
2017-11-22 08:21:00,52.6,52.6,29.90,West,277,0.0,0.0,100,0.00,,,0.04,Wunderground v.1.15,2017-11-22 16:21:00,
2017-11-22 08:26:00,52.9,52.9,29.80,West,277,0.0,0.0,100,0.00,,,0.04,Wunderground v.1.15,2017-11-22 16:26:00,
2017-11-22 08:36:00,53.3,53.3,29.89,West,277,0.0,0.0,100,0.00,,,0.04,Wunderground v.1.15,2017-11-22 16:36:00,
2017-11-22 08:41:00,53.3,53.3,29.79,West,277,0.0,0.0,100,0.00,,,0.04,Wunderground v.1.15,2017-11-22 16:41:00,
2017-11-22 08:51:00,53.5,53.5,29.88,West,277,3.0,3.0,100,0.00,,,0.04,Wunderground v.1.15,2017-11-22 16:51:00,
2017-11-22 08:56:00,53.3,53.3,29.88,West,277,2.0,5.0,100,0.00,,,0.04,Wunderground v.1.15,2017-11-22 16:56:00,
2017-11-22 09:01:00,53.8,53.8,29.89,West,277,0.0,2.0,100,0.00,,,0.04,Wunderground v.1.15,2017-11-22 17:01:00,
2017-11-22 09:06:00,53.8,53.8,29.89,West,277,0.0,3.0,100,0.00,,,0.04,Wunderground v.1.15,2017-11-22 17:06:00,
2017-11-22 09:11:00,53.9,53.9,29.89,West,277,0.0,1.0,100,0.00,,,0.04,Wunderground v.1.15,2017-11-22 17:11:00,
2017-11-22 09:21:00,54.4,54.4,29.88,West,277,0.0,0.0,100,0.00,,,0.04,Wunderground v.1.15,2017-11-22 17:21:00,
2017-11-22 09:26:00,54.4,54.4,29.88,West,277,2.0,2.0,100,0.00,,,0.04,Wunderground v.1.15,2017-11-22 17:26:00,